Canyondam, California
Current Conditions -  °F | °C
As of 7:55 AM on Thursday 23 Oct 2014 (Local Time) from KCIC Reporting Station
Overcast Overcast  
Wind Chill: 57°   Ceiling: 7000
Heat Index: 57°   Visibility: 10mi
Dew Point: 54°   Wind: 5mph
Humidity: 88%   Direction: 40°NE
Pressure: 30.04"   Gusts: NA
Location:  40.1828°N, 121.1496°W
Report Text: KCIC 231455Z 04004KT 10SM FEW050 BKN070 OVC100 14/12 A3004
Loading
Personal Weather Stations






























Interactive Weather Map
Tropical Storm Tracking
New forecast layout! Learn more

10-Day Weather Forecast

Advertisements
Track Severe Weather on mobile